Time;durP1;ratioP1;P1;durP2;ratioP2;P2;SDS_P1;SDS_P2;PMS_P1;PMS_P2;Temp;Humidity;BMP_temperature;BMP_pressure;BME280_temperature;BME280_humidity;BME280_pressure;Samples;Min_cycle;Max_cycle;Signal;HPM_P1;HPM_P2
2022/06/15 00:00:59;;;;;;;3.25;1.13;;;;;;;23.15;48.91;98705.03;5084768;28;20032;-72
2022/06/15 00:03:27;;;;;;;2.92;1.00;;;;;;;23.12;48.62;98700.06;5081791;28;20083;-71
2022/06/15 00:06:03;;;;;;;2.58;0.90;;;;;;;23.14;48.45;98707.94;5074552;28;20407;-70
2022/06/15 00:08:29;;;;;;;1.77;0.93;;;;;;;23.17;48.37;98710.19;5074950;28;20032;-72
2022/06/15 00:10:54;;;;;;;2.30;0.80;;;;;;;23.20;48.21;98708.91;5074347;28;20033;-72
2022/06/15 00:13:21;;;;;;;5.47;1.00;;;;;;;23.23;48.18;98711.19;5079067;28;20032;-71
2022/06/15 00:15:48;;;;;;;1.50;0.77;;;;;;;23.22;48.52;98701.44;5093048;28;20471;-67
2022/06/15 00:18:13;;;;;;;1.33;0.85;;;;;;;23.23;48.05;98711.19;5092556;28;20067;-69
2022/06/15 00:20:39;;;;;;;6.75;0.90;;;;;;;23.19;48.25;98702.69;5092747;28;20058;-68
2022/06/15 00:23:04;;;;;;;3.28;0.85;;;;;;;23.16;48.27;98706.66;5092576;28;20031;-69
2022/06/15 00:25:30;;;;;;;3.50;0.88;;;;;;;23.16;48.15;98703.94;5093165;28;20169;-70
2022/06/15 00:27:55;;;;;;;4.93;0.98;;;;;;;23.16;48.20;98709.34;5084202;28;20056;-71
2022/06/15 00:30:21;;;;;;;1.60;0.98;;;;;;;23.17;48.18;98704.78;5092698;28;20028;-72
2022/06/15 00:32:47;;;;;;;2.17;1.48;;;;;;;23.15;48.28;98710.44;5084430;28;20040;-69
2022/06/15 00:35:15;;;;;;;1.10;0.68;;;;;;;23.13;48.38;98708.97;5091379;28;20024;-71
2022/06/15 00:37:41;;;;;;;2.78;0.80;;;;;;;23.10;48.47;98715.66;5092168;28;20510;-70
2022/06/15 00:40:07;;;;;;;2.15;0.88;;;;;;;23.09;48.33;98713.16;5092539;28;20024;-68
2022/06/15 00:42:34;;;;;;;1.33;0.75;;;;;;;23.07;48.45;98713.41;5089589;28;20032;-70
2022/06/15 00:44:59;;;;;;;2.92;1.83;;;;;;;23.04;48.28;98713.84;5092756;28;20394;-73
2022/06/15 00:47:29;;;;;;;4.20;1.30;;;;;;;23.04;48.25;98710.31;5087623;28;20028;-69
2022/06/15 00:50:09;;;;;;;1.50;0.93;;;;;;;23.00;48.29;98709.97;5088893;28;20115;-72
2022/06/15 00:52:55;;;;;;;3.80;0.70;;;;;;;22.98;48.44;98709.34;5092500;28;20049;-72
2022/06/15 00:55:32;;;;;;;1.83;0.90;;;;;;;22.94;48.35;98708.13;5092324;28;20060;-74
2022/06/15 00:58:01;;;;;;;1.50;0.90;;;;;;;22.90;48.69;98720.41;5088622;28;20024;-68
2022/06/15 01:00:27;;;;;;;2.10;0.80;;;;;;;22.89;48.48;98718.75;5086324;28;20027;-70
2022/06/15 01:02:53;;;;;;;2.00;0.80;;;;;;;22.88;48.64;98712.53;5086196;28;20509;-73
2022/06/15 01:05:31;;;;;;;2.58;1.10;;;;;;;22.86;48.44;98710.09;5092003;28;20055;-70
2022/06/15 01:08:07;;;;;;;2.15;0.80;;;;;;;22.83;48.50;98710.53;5092086;28;20038;-70
2022/06/15 01:10:51;;;;;;;2.13;0.80;;;;;;;22.84;48.33;98716.72;5091939;28;20483;-70
2022/06/15 01:13:47;;;;;;;3.28;1.00;;;;;;;22.82;48.48;98714.25;5089941;28;20093;-72
2022/06/15 01:16:40;;;;;;;1.50;0.93;;;;;;;22.82;48.46;98719.66;5091878;28;20024;-70
2022/06/15 01:19:18;;;;;;;2.40;0.75;;;;;;;22.80;48.42;98719.03;5090795;28;20364;-73
2022/06/15 01:21:52;;;;;;;3.25;0.68;;;;;;;22.77;48.50;98716.78;5092988;28;20032;-72
2022/06/15 01:24:46;;;;;;;1.20;0.90;;;;;;;22.75;48.68;98715.38;5072523;28;20047;-71
2022/06/15 01:27:23;;;;;;;1.58;0.82;;;;;;;22.69;48.88;98712.50;5072725;28;20147;-70
2022/06/15 01:29:54;;;;;;;3.80;0.95;;;;;;;22.73;48.63;98712.88;5086051;28;20092;-67
2022/06/15 01:32:41;;;;;;;1.35;1.05;;;;;;;22.73;48.32;98710.19;5085078;28;20489;-71
2022/06/15 01:35:24;;;;;;;1.33;0.80;;;;;;;22.72;48.71;98711.22;5085634;28;20050;-70
2022/06/15 01:37:56;;;;;;;1.10;0.77;;;;;;;22.72;48.34;98716.63;5072589;28;20406;-72
2022/06/15 01:40:43;;;;;;;4.78;1.38;;;;;;;22.70;48.41;98708.75;5072536;28;20058;-68
2022/06/15 01:43:21;;;;;;;1.00;0.68;;;;;;;22.70;48.30;98705.25;5072667;28;20024;-68
2022/06/15 01:45:48;;;;;;;1.30;0.80;;;;;;;22.66;48.22;98710.22;5073172;28;20487;-69
2022/06/15 01:48:15;;;;;;;1.63;0.65;;;;;;;22.66;48.37;98704.03;5071700;28;20041;-72
2022/06/15 01:51:10;;;;;;;4.75;0.70;;;;;;;22.64;48.20;98714.22;5073685;28;20082;-69
2022/06/15 01:53:47;;;;;;;1.85;0.75;;;;;;;22.63;48.16;98701.78;5070769;28;20044;-68
2022/06/15 01:56:22;;;;;;;2.78;0.55;;;;;;;22.63;48.25;98702.59;5091917;28;20066;-68
2022/06/15 01:58:55;;;;;;;1.85;1.45;;;;;;;22.63;48.24;98701.78;5072705;28;20051;-69
2022/06/15 02:01:30;;;;;;;3.13;1.20;;;;;;;22.60;48.24;98702.19;5074842;28;20033;-70
2022/06/15 02:04:03;;;;;;;2.58;0.98;;;;;;;22.56;48.27;98704.53;5086176;28;20062;-68
2022/06/15 02:06:55;;;;;;;1.98;0.70;;;;;;;22.58;48.20;98705.13;5073390;28;20033;-70
2022/06/15 02:09:37;;;;;;;0.85;0.60;;;;;;;22.58;48.30;98702.44;5081477;28;20040;-70
2022/06/15 02:12:06;;;;;;;4.18;0.98;;;;;;;22.58;48.13;98712.38;5092393;28;20028;-69
2022/06/15 02:14:46;;;;;;;1.73;0.73;;;;;;;22.61;48.11;98709.25;5091691;28;20032;-72
2022/06/15 02:17:22;;;;;;;2.03;0.90;;;;;;;22.63;47.83;98709.84;5083594;28;20032;-70
2022/06/15 02:19:52;;;;;;;0.85;0.60;;;;;;;22.61;47.71;98704.69;5090374;28;20093;-70
2022/06/15 02:22:21;;;;;;;1.35;0.80;;;;;;;22.60;47.89;98702.19;5074284;28;20406;-69
2022/06/15 02:24:51;;;;;;;1.23;1.00;;;;;;;22.66;47.69;98707.53;5092674;28;20044;-69
2022/06/15 02:27:17;;;;;;;2.25;0.93;;;;;;;22.90;47.37;98702.38;5088452;28;20064;-71
2022/06/15 02:29:46;;;;;;;1.48;0.75;;;;;;;23.15;46.93;98702.34;5092191;28;20106;-69
2022/06/15 02:32:15;;;;;;;1.65;0.75;;;;;;;23.41;45.98;98705.81;5092475;28;20484;-72
2022/06/15 02:34:41;;;;;;;4.82;1.20;;;;;;;23.64;44.88;98704.28;5092225;28;20497;-69
2022/06/15 02:37:06;;;;;;;3.85;0.73;;;;;;;23.76;44.69;98702.47;5079603;28;20142;-72
2022/06/15 02:39:33;;;;;;;3.45;1.67;;;;;;;23.77;44.47;98698.69;5072056;28;20090;-71
2022/06/15 02:42:01;;;;;;;1.67;0.80;;;;;;;23.74;44.41;98711.84;5079470;28;20502;-71
2022/06/15 02:44:30;;;;;;;1.10;0.73;;;;;;;23.67;44.40;98706.53;5071908;28;20045;-70
2022/06/15 02:46:57;;;;;;;2.05;0.70;;;;;;;23.62;44.48;98714.47;5082711;28;20509;-70
2022/06/15 02:49:23;;;;;;;1.77;0.75;;;;;;;23.57;44.62;98715.16;5092299;28;20180;-71
2022/06/15 02:51:51;;;;;;;1.70;0.70;;;;;;;23.54;45.00;98710.22;5089222;28;20541;-69
2022/06/15 02:54:48;;;;;;;1.25;0.63;;;;;;;23.49;44.93;98711.94;5077734;28;20487;-70
2022/06/15 02:57:15;;;;;;;1.17;0.70;;;;;;;23.43;45.17;98714.50;5081950;28;20040;-71
2022/06/15 02:59:41;;;;;;;2.58;0.70;;;;;;;23.41;45.14;98711.22;5091820;28;20106;-70
2022/06/15 03:02:07;;;;;;;6.38;1.08;;;;;;;23.38;45.18;98711.66;5076287;28;20046;-71
2022/06/15 03:04:33;;;;;;;4.07;0.70;;;;;;;23.38;45.35;98708.94;5075359;28;20484;-68
2022/06/15 03:06:58;;;;;;;1.33;0.60;;;;;;;23.39;45.44;98717.88;5075401;28;20024;-68
2022/06/15 03:09:24;;;;;;;1.85;0.90;;;;;;;23.43;45.14;98717.22;5075228;28;20483;-67
2022/06/15 03:11:50;;;;;;;3.10;1.00;;;;;;;23.47;44.82;98718.38;5075136;28;20563;-71
2022/06/15 03:14:17;;;;;;;4.18;0.77;;;;;;;23.65;44.28;98719.44;5088411;28;20089;-72
2022/06/15 03:16:43;;;;;;;3.38;0.90;;;;;;;23.93;43.75;98715.34;5092971;28;20065;-70
2022/06/15 03:19:12;;;;;;;6.40;0.75;;;;;;;24.30;42.80;98726.09;5075360;28;20107;-71
2022/06/15 03:21:38;;;;;;;5.40;0.82;;;;;;;24.71;41.91;98722.78;5074975;28;20028;-70
2022/06/15 03:24:05;;;;;;;1.65;0.82;;;;;;;25.07;41.08;98719.03;5075200;28;20033;-68
2022/06/15 03:26:30;;;;;;;3.20;1.30;;;;;;;25.34;40.30;98723.94;5075632;28;20478;-71
2022/06/15 03:28:56;;;;;;;3.97;0.90;;;;;;;25.58;40.02;98719.31;5074856;28;20071;-69
2022/06/15 03:31:21;;;;;;;2.67;0.85;;;;;;;25.83;39.58;98730.91;5075092;28;20029;-69
2022/06/15 03:33:47;;;;;;;3.38;1.33;;;;;;;25.92;39.29;98734.06;5076012;28;20040;-72
2022/06/15 03:36:12;;;;;;;1.60;0.80;;;;;;;25.81;39.37;98723.00;5085550;28;20036;-69
2022/06/15 03:38:38;;;;;;;2.30;1.02;;;;;;;25.75;39.58;98727.50;5075049;28;20040;-69
2022/06/15 03:41:03;;;;;;;3.40;1.05;;;;;;;25.67;39.58;98724.34;5075261;28;20024;-71
2022/06/15 03:43:29;;;;;;;1.15;0.77;;;;;;;25.63;39.64;98724.03;5075512;28;20025;-71
2022/06/15 03:45:55;;;;;;;1.98;0.52;;;;;;;25.56;39.99;98734.19;5075347;28;20028;-70
2022/06/15 03:48:21;;;;;;;1.15;0.70;;;;;;;25.52;39.73;98731.09;5075286;28;20043;-68
2022/06/15 03:50:47;;;;;;;1.35;0.75;;;;;;;25.50;39.68;98719.72;5078458;28;20040;-71
2022/06/15 03:53:12;;;;;;;2.72;0.85;;;;;;;25.54;39.55;98728.97;5074670;28;20399;-71
2022/06/15 03:55:40;;;;;;;3.42;0.90;;;;;;;25.54;39.70;98734.41;5076096;28;20063;-69
2022/06/15 03:58:05;;;;;;;3.55;1.10;;;;;;;25.47;39.82;98719.34;5078087;28;20040;-70
2022/06/15 04:00:32;;;;;;;2.58;0.95;;;;;;;25.38;40.06;98732.41;5075178;28;20028;-71
2022/06/15 04:02:58;;;;;;;1.10;0.85;;;;;;;25.29;39.84;98719.25;5089503;28;20475;-72
2022/06/15 04:05:29;;;;;;;3.90;0.95;;;;;;;25.25;39.98;98719.94;5094739;28;20047;-72
2022/06/15 04:10:38;;;;;;;2.55;0.90;;;;;;;25.09;40.10;98727.72;5074123;28;19923;-69
2022/06/15 04:13:04;;;;;;;3.22;0.68;;;;;;;25.04;40.47;98727.59;5077227;28;20040;-71
2022/06/15 04:15:30;;;;;;;2.85;0.80;;;;;;;24.98;40.67;98732.09;5094421;28;20510;-69
2022/06/15 04:17:56;;;;;;;4.53;0.95;;;;;;;24.96;40.41;98736.91;5078473;28;20467;-70
2022/06/15 04:20:34;;;;;;;3.13;1.00;;;;;;;24.95;40.60;98732.53;5074259;28;20067;-70
2022/06/15 04:23:09;;;;;;;1.63;0.80;;;;;;;24.95;40.64;98737.16;5074058;28;20028;-69
2022/06/15 04:25:39;;;;;;;2.22;0.77;;;;;;;24.92;40.10;98735.75;5074232;28;20123;-68
2022/06/15 04:28:06;;;;;;;1.90;0.77;;;;;;;24.86;40.16;98739.38;5073926;28;20542;-70
2022/06/15 04:30:32;;;;;;;3.08;0.80;;;;;;;24.90;40.14;98735.16;5074414;28;20047;-69
2022/06/15 04:32:57;;;;;;;2.10;0.70;;;;;;;25.01;39.89;98732.69;5073656;28;20028;-72
2022/06/15 04:35:23;;;;;;;3.17;1.13;;;;;;;25.04;39.90;98740.34;5073982;28;20021;-70
2022/06/15 04:37:48;;;;;;;1.58;0.68;;;;;;;25.08;40.28;98738.78;5073931;28;20028;-70
2022/06/15 04:40:14;;;;;;;1.33;0.73;;;;;;;25.35;39.29;98738.31;5091839;28;20502;-68
2022/06/15 04:42:41;;;;;;;1.25;0.75;;;;;;;25.68;38.94;98734.97;5093913;28;20057;-70
2022/06/15 04:45:11;;;;;;;1.65;0.63;;;;;;;25.89;38.25;98730.78;5094054;28;20028;-70
2022/06/15 04:47:37;;;;;;;4.75;0.82;;;;;;;25.89;38.11;98733.50;5080479;28;20036;-70
2022/06/15 04:50:04;;;;;;;1.98;0.80;;;;;;;25.88;38.07;98726.41;5082869;28;20107;-69
2022/06/15 04:52:29;;;;;;;3.45;0.60;;;;;;;26.16;37.77;98724.78;5093394;28;20024;-71
2022/06/15 04:54:55;;;;;;;1.88;0.60;;;;;;;26.42;37.35;98738.00;5093695;28;20032;-71
2022/06/15 04:57:20;;;;;;;2.05;0.70;;;;;;;26.65;36.94;98745.97;5071977;28;20038;-70
2022/06/15 04:59:46;;;;;;;1.65;1.10;;;;;;;26.62;36.98;98743.75;5090798;28;20116;-71
2022/06/15 05:02:11;;;;;;;1.48;0.75;;;;;;;26.61;37.05;98741.28;5082003;28;20475;-71
2022/06/15 05:04:37;;;;;;;3.47;0.75;;;;;;;26.50;37.74;98746.56;5092249;28;20093;-70
2022/06/15 05:07:02;;;;;;;0.82;0.50;;;;;;;26.56;37.44;98743.91;5073918;28;20048;-72
2022/06/15 05:09:28;;;;;;;1.85;0.70;;;;;;;26.37;37.65;98746.03;5073155;28;20040;-70
2022/06/15 05:11:54;;;;;;;3.00;0.80;;;;;;;26.30;37.79;98744.31;5073761;28;20040;-70
2022/06/15 05:14:20;;;;;;;1.05;0.68;;;;;;;26.31;37.46;98735.13;5086761;28;20060;-71
2022/06/15 05:16:45;;;;;;;3.70;0.65;;;;;;;26.15;37.88;98742.13;5091715;28;20027;-70
2022/06/15 05:19:11;;;;;;;1.35;0.70;;;;;;;26.10;37.76;98741.19;5073555;28;20033;-71
2022/06/15 05:21:41;;;;;;;2.67;0.57;;;;;;;26.28;37.56;98748.31;5073015;28;20040;-69
2022/06/15 05:24:07;;;;;;;1.92;0.70;;;;;;;26.40;37.25;98749.06;5072375;28;20115;-71
2022/06/15 05:26:33;;;;;;;2.88;0.70;;;;;;;26.44;37.13;98746.72;5072368;28;20511;-72
2022/06/15 05:28:58;;;;;;;2.58;0.75;;;;;;;26.38;36.93;98748.53;5072807;28;20046;-68
2022/06/15 05:31:24;;;;;;;5.65;0.60;;;;;;;26.39;37.09;98742.03;5072713;28;20032;-69
2022/06/15 05:33:55;;;;;;;1.77;0.60;;;;;;;26.35;36.99;98749.81;5074325;28;20034;-68
2022/06/15 05:36:33;;;;;;;1.02;0.47;;;;;;;26.41;37.05;98753.44;5073087;28;20040;-70
2022/06/15 05:38:58;;;;;;;1.85;0.50;;;;;;;26.42;36.82;98755.06;5079188;28;20055;-70
2022/06/15 05:41:24;;;;;;;2.25;0.52;;;;;;;26.42;36.82;98749.66;5092735;28;20438;-68
2022/06/15 05:43:57;;;;;;;1.77;0.50;;;;;;;26.39;36.71;98757.47;5075904;28;20032;-70
2022/06/15 05:46:26;;;;;;;0.60;0.60;;;;;;;26.31;37.08;98747.84;5072610;28;20136;-70
2022/06/15 05:48:54;;;;;;;1.80;0.75;;;;;;;26.24;37.20;98752.59;5072640;28;20122;-69
2022/06/15 05:51:19;;;;;;;3.38;0.70;;;;;;;26.11;37.55;98756.41;5083173;28;20035;-68
2022/06/15 05:53:45;;;;;;;3.63;1.25;;;;;;;25.98;37.66;98752.91;5092766;28;20082;-71
2022/06/15 05:56:10;;;;;;;1.80;0.82;;;;;;;25.83;38.15;98753.41;5092760;28;20031;-71
2022/06/15 05:58:36;;;;;;;0.90;0.47;;;;;;;25.74;38.13;98765.69;5091611;28;20075;-70
2022/06/15 06:01:10;;;;;;;1.27;0.50;;;;;;;25.64;38.42;98758.19;5080015;28;20028;-72
2022/06/15 06:03:36;;;;;;;1.90;0.63;;;;;;;25.56;38.52;98756.66;5072614;28;20528;-69
2022/06/15 06:06:02;;;;;;;2.05;0.68;;;;;;;25.47;38.49;98749.97;5072458;28;20040;-73
2022/06/15 06:08:27;;;;;;;1.25;0.43;;;;;;;25.42;38.94;98747.16;5072507;28;20505;-70
2022/06/15 06:10:53;;;;;;;2.30;0.50;;;;;;;25.41;39.42;98756.31;5072385;28;20119;-71
2022/06/15 06:13:18;;;;;;;2.58;0.70;;;;;;;25.43;39.35;98759.63;5077423;28;20411;-70
2022/06/15 06:15:43;;;;;;;3.35;0.68;;;;;;;25.41;39.37;98757.16;5093171;28;20054;-71
2022/06/15 06:18:09;;;;;;;1.50;0.55;;;;;;;25.40;39.19;98760.06;5091509;28;20066;-71
2022/06/15 06:20:34;;;;;;;3.50;1.10;;;;;;;25.38;39.50;98762.19;5078217;28;20040;-70
2022/06/15 06:23:00;;;;;;;3.50;1.75;;;;;;;25.37;39.02;98755.97;5083946;28;20086;-71
2022/06/15 06:25:25;;;;;;;1.73;0.60;;;;;;;25.37;38.55;98755.97;5092513;28;20040;-69
2022/06/15 06:27:51;;;;;;;3.10;0.50;;;;;;;25.36;38.83;98764.34;5085565;28;20063;-70
2022/06/15 06:30:16;;;;;;;1.98;0.43;;;;;;;25.32;38.76;98752.31;5072789;28;20434;-69
2022/06/15 06:32:42;;;;;;;1.60;0.65;;;;;;;25.30;39.06;98749.81;5072159;28;20051;-71
2022/06/15 06:35:08;;;;;;;0.85;0.40;;;;;;;25.26;38.71;98751.38;5074510;28;20032;-70
2022/06/15 06:37:35;;;;;;;2.42;0.75;;;;;;;25.23;39.23;98758.06;5076381;28;20036;-71
2022/06/15 06:40:00;;;;;;;1.58;0.60;;;;;;;25.23;39.15;98760.78;5081875;28;20031;-69
2022/06/15 06:42:26;;;;;;;2.65;0.40;;;;;;;25.25;38.88;98760.56;5095986;28;20040;-68
2022/06/15 06:44:52;;;;;;;4.47;0.63;;;;;;;25.24;38.99;98757.00;5096320;28;20119;-69
2022/06/15 06:47:17;;;;;;;2.75;0.47;;;;;;;25.23;38.67;98766.19;5088423;28;20032;-69
2022/06/15 06:49:43;;;;;;;1.70;0.60;;;;;;;25.20;38.77;98760.44;5075884;28;20035;-72
2022/06/15 06:52:08;;;;;;;1.17;0.47;;;;;;;25.18;38.81;98767.97;5080124;28;20557;-69
2022/06/15 06:54:34;;;;;;;0.93;0.38;;;;;;;25.13;39.19;98758.69;5078596;28;20115;-70
2022/06/15 06:57:00;;;;;;;0.95;0.47;;;;;;;25.13;39.05;98763.25;5079243;28;20760;-69
2022/06/15 06:59:25;;;;;;;0.90;0.40;;;;;;;25.13;39.09;98771.38;5096604;28;20035;-70
2022/06/15 07:01:51;;;;;;;2.20;0.50;;;;;;;25.12;39.49;98762.47;5078275;28;20045;-69
2022/06/15 07:04:18;;;;;;;0.65;0.40;;;;;;;25.11;38.75;98771.63;5078461;28;20463;-68
2022/06/15 07:06:44;;;;;;;4.15;1.77;;;;;;;25.09;39.10;98759.38;5075597;28;20402;-71
2022/06/15 07:09:10;;;;;;;1.10;0.50;;;;;;;25.09;38.75;98767.50;5075593;28;20132;-68
2022/06/15 07:11:36;;;;;;;0.50;0.30;;;;;;;25.01;38.57;98760.53;5075175;28;20494;-69
2022/06/15 07:14:01;;;;;;;1.30;0.52;;;;;;;24.94;39.09;98771.50;5086386;28;20176;-70
2022/06/15 07:16:27;;;;;;;1.58;0.45;;;;;;;24.90;39.16;98783.00;5075121;28;20042;-70
2022/06/15 07:18:53;;;;;;;1.27;0.40;;;;;;;24.88;39.45;98791.38;5075312;28;20041;-69
2022/06/15 07:21:22;;;;;;;1.23;0.55;;;;;;;24.86;39.80;98777.25;5076546;28;20037;-68
2022/06/15 07:23:49;;;;;;;0.40;0.30;;;;;;;24.87;39.68;98778.06;5083250;28;20044;-70
2022/06/15 07:26:19;;;;;;;3.10;0.40;;;;;;;24.89;39.89;98784.06;5074577;28;20055;-68
2022/06/15 07:28:45;;;;;;;2.25;0.73;;;;;;;24.93;39.58;98790.66;5075347;28;20075;-71
2022/06/15 07:31:23;;;;;;;1.13;0.50;;;;;;;24.96;39.74;98796.44;5075157;28;20116;-69
2022/06/15 07:33:49;;;;;;;1.58;0.40;;;;;;;24.95;39.51;98793.97;5075115;28;20173;-67
2022/06/15 07:36:15;;;;;;;1.27;0.40;;;;;;;24.91;39.25;98793.63;5074833;28;20069;-69
2022/06/15 07:38:40;;;;;;;1.25;0.30;;;;;;;24.93;39.40;98796.09;5075007;28;20059;-67
2022/06/15 07:41:06;;;;;;;1.63;0.30;;;;;;;24.89;39.25;98784.91;5083122;28;20028;-67
2022/06/15 07:43:32;;;;;;;2.65;0.63;;;;;;;24.86;39.57;98793.50;5074779;28;20032;-70
2022/06/15 07:45:57;;;;;;;1.33;0.40;;;;;;;24.85;39.05;98777.50;5073584;28;20119;-69
2022/06/15 07:51:29;;;;;;;6.57;0.40;;;;;;;24.71;39.33;98788.50;5032558;28;20045;-70
2022/06/15 07:53:56;;;;;;;0.98;0.30;;;;;;;24.67;38.91;98785.41;5083894;28;20062;-69
2022/06/15 07:56:22;;;;;;;0.60;0.40;;;;;;;24.65;39.71;98782.13;5094937;28;20036;-70
2022/06/15 07:58:48;;;;;;;0.80;0.25;;;;;;;24.67;39.53;98801.66;5076089;28;20127;-71
2022/06/15 08:01:13;;;;;;;0.82;0.50;;;;;;;24.70;39.70;98788.75;5085088;28;20057;-69
2022/06/15 08:03:39;;;;;;;6.65;0.35;;;;;;;24.68;39.35;98791.66;5088673;28;20027;-68
2022/06/15 08:06:05;;;;;;;3.60;0.57;;;;;;;24.65;39.03;98787.53;5077070;28;20506;-69
2022/06/15 08:08:31;;;;;;;11.82;0.73;;;;;;;24.65;38.97;98797.53;5088202;28;20036;-66
2022/06/15 08:10:57;;;;;;;4.25;0.77;;;;;;;24.61;38.75;98794.47;5086784;28;20047;-68
2022/06/15 08:13:22;;;;;;;3.60;0.40;;;;;;;24.59;39.00;98787.63;5078941;28;20032;-69
2022/06/15 08:15:50;;;;;;;0.80;0.40;;;;;;;24.54;38.89;98796.44;5094315;28;20035;-69
2022/06/15 08:18:28;;;;;;;4.50;0.88;;;;;;;24.52;38.59;98795.84;5094552;28;20256;-67
2022/06/15 08:21:01;;;;;;;5.78;0.40;;;;;;;24.42;38.54;98801.00;5089591;28;20028;-70
2022/06/15 08:23:31;;;;;;;1.40;0.50;;;;;;;24.36;38.41;98800.84;5074184;28;20047;-68
2022/06/15 08:26:03;;;;;;;0.95;0.30;;;;;;;24.33;38.49;98805.88;5073740;28;20032;-70
2022/06/15 08:28:36;;;;;;;0.95;0.60;;;;;;;24.29;38.45;98799.28;5056763;28;20040;-70
2022/06/15 08:31:02;;;;;;;3.90;0.60;;;;;;;24.25;38.32;98812.44;5073848;28;20071;-70
2022/06/15 08:33:27;;;;;;;7.88;0.75;;;;;;;24.25;38.59;98817.84;5074415;28;20107;-66
2022/06/15 08:35:53;;;;;;;2.13;0.60;;;;;;;24.27;38.16;98813.03;5073807;28;20107;-69
2022/06/15 08:38:21;;;;;;;5.00;0.63;;;;;;;24.25;38.15;98808.94;5073825;28;20083;-69
2022/06/15 08:40:51;;;;;;;5.72;2.05;;;;;;;24.21;38.11;98813.94;5081751;28;20042;-70
2022/06/15 08:43:22;;;;;;;3.03;0.60;;;;;;;24.20;38.21;98826.66;5074706;28;20063;-71
2022/06/15 08:45:54;;;;;;;0.95;0.30;;;;;;;24.20;38.18;98815.00;5073938;28;20082;-69
2022/06/15 08:48:40;;;;;;;4.90;0.75;;;;;;;24.18;38.14;98828.75;5075016;28;20036;-68
2022/06/15 08:51:18;;;;;;;1.85;0.40;;;;;;;24.15;38.02;98809.47;5078363;28;20036;-68
2022/06/15 08:54:01;;;;;;;0.73;0.40;;;;;;;24.14;37.83;98816.72;5093899;28;20380;-69
2022/06/15 08:56:51;;;;;;;2.75;0.85;;;;;;;24.05;37.86;98818.91;5080777;28;20067;-69
2022/06/15 08:59:25;;;;;;;4.38;0.47;;;;;;;24.04;38.33;98809.16;5093417;28;20065;-68
2022/06/15 09:02:09;;;;;;;4.97;0.60;;;;;;;24.07;38.02;98818.72;5082128;28;20036;-70
2022/06/15 09:04:37;;;;;;;1.15;0.40;;;;;;;24.06;38.28;98812.47;5093778;28;20054;-70
2022/06/15 09:07:14;;;;;;;2.63;0.45;;;;;;;24.13;38.51;98812.38;5078399;28;20040;-70
2022/06/15 09:10:36;;;;;;;2.67;0.40;;;;;;;24.20;38.25;98802.31;5073157;28;20037;-69
2022/06/15 09:13:29;;;;;;;0.32;0.30;;;;;;;24.20;37.88;98806.88;5003190;28;20038;-69
2022/06/15 09:16:19;;;;;;;2.30;0.82;;;;;;;24.15;37.93;98814.88;5011052;28;20034;-68
2022/06/15 09:18:54;;;;;;;3.13;1.30;;;;;;;24.12;37.71;98807.22;5087892;28;20079;-69
2022/06/15 09:21:29;;;;;;;11.95;1.85;;;;;;;24.04;37.94;98803.75;5090260;28;20385;-71
2022/06/15 09:24:09;;;;;;;7.00;1.95;;;;;;;23.99;38.02;98819.00;5073030;28;20040;-69
2022/06/15 09:26:42;;;;;;;16.52;4.15;;;;;;;24.01;37.86;98819.59;5074193;28;20048;-68
2022/06/15 09:29:17;;;;;;;20.75;5.70;;;;;;;24.04;38.63;98822.66;5072963;28;20032;-66
2022/06/15 09:31:50;;;;;;;28.63;9.30;;;;;;;24.08;38.40;98818.47;5072950;28;20453;-69
2022/06/15 09:34:25;;;;;;;45.55;11.75;;;;;;;24.17;38.18;98826.28;5072862;28;20040;-67
2022/06/15 09:36:56;;;;;;;41.38;11.27;;;;;;;24.22;38.54;98842.63;5072902;28;20039;-68
2022/06/15 09:39:23;;;;;;;32.85;8.95;;;;;;;24.24;38.10;98829.72;5072933;28;20036;-69
2022/06/15 09:42:06;;;;;;;28.00;8.32;;;;;;;24.30;38.38;98845.03;5072906;28;20388;-67
2022/06/15 09:44:53;;;;;;;27.27;7.78;;;;;;;24.33;38.33;98835.63;5082350;28;20036;-67
2022/06/15 09:47:43;;;;;;;17.65;5.53;;;;;;;24.37;38.30;98832.22;5085932;28;20109;-69
2022/06/15 09:50:36;;;;;;;15.13;4.50;;;;;;;24.39;38.03;98829.31;5073224;28;20036;-68
2022/06/15 09:53:19;;;;;;;12.52;3.67;;;;;;;24.39;38.11;98837.44;5090930;28;20032;-68
2022/06/15 09:55:51;;;;;;;8.45;2.50;;;;;;;24.37;37.60;98836.84;5092463;28;20028;-68
2022/06/15 09:58:19;;;;;;;7.05;2.13;;;;;;;24.40;37.27;98840.94;5063951;28;20033;-67
2022/06/15 10:00:47;;;;;;;6.97;1.88;;;;;;;24.42;37.62;98842.34;5074590;28;20115;-68
2022/06/15 10:03:31;;;;;;;4.50;1.20;;;;;;;24.41;37.16;98837.19;5088778;28;20024;-68
2022/06/15 10:06:11;;;;;;;13.68;1.75;;;;;;;24.37;37.16;98842.25;5072163;28;20441;-70
2022/06/15 10:08:37;;;;;;;3.92;2.00;;;;;;;24.38;37.41;98844.69;5072037;28;20040;-68
2022/06/15 10:11:03;;;;;;;5.47;2.47;;;;;;;24.38;37.48;98842.00;5077857;28;20384;-69
2022/06/15 10:13:38;;;;;;;10.18;1.63;;;;;;;24.37;37.76;98851.16;5084001;28;20530;-69
2022/06/15 10:16:19;;;;;;;4.03;1.40;;;;;;;24.40;37.65;98855.31;5095973;28;20491;-66
2022/06/15 10:18:52;;;;;;;5.68;1.30;;;;;;;24.40;37.60;98860.72;5086974;28;20074;-67
2022/06/15 10:21:33;;;;;;;9.30;2.20;;;;;;;24.42;37.56;98869.41;5078989;28;20120;-68
2022/06/15 10:24:05;;;;;;;4.82;1.38;;;;;;;24.44;37.63;98853.78;5077657;28;20036;-67
2022/06/15 10:26:33;;;;;;;5.30;1.25;;;;;;;24.43;37.89;98854.81;5083010;28;20071;-67
2022/06/15 10:29:24;;;;;;;5.03;1.30;;;;;;;24.44;37.94;98863.78;5075950;28;20032;-69
2022/06/15 10:32:22;;;;;;;4.70;1.73;;;;;;;24.43;37.93;98864.81;5075908;28;20072;-69
2022/06/15 10:34:53;;;;;;;4.45;1.17;;;;;;;24.43;38.02;98862.13;5085485;28;20108;-67
2022/06/15 10:37:20;;;;;;;7.10;1.75;;;;;;;24.45;38.12;98870.84;5085170;28;20085;-70
2022/06/15 10:39:52;;;;;;;3.83;1.67;;;;;;;24.49;38.40;98862.03;5066955;28;20041;-72
2022/06/15 10:42:42;;;;;;;5.38;1.65;;;;;;;24.50;38.24;98858.28;5091314;28;20112;-70
2022/06/15 10:45:19;;;;;;;5.32;1.60;;;;;;;24.51;38.09;98857.22;5083305;28;20036;-70
2022/06/15 10:48:06;;;;;;;5.53;1.40;;;;;;;24.50;38.00;98855.56;5079041;28;20033;-66
2022/06/15 10:50:42;;;;;;;7.25;1.60;;;;;;;24.51;38.36;98850.97;5093622;28;20032;-64
2022/06/15 10:53:31;;;;;;;4.70;1.40;;;;;;;24.52;38.44;98861.59;5084625;28;20032;-67
2022/06/15 11:02:47;;;;;;;6.00;1.58;;;;;;;24.46;37.76;98864.38;5075872;28;20178;-66
2022/06/15 11:05:19;;;;;;;5.60;2.00;;;;;;;24.45;38.51;98868.94;5081061;28;20431;-69
2022/06/15 11:07:53;;;;;;;6.07;1.33;;;;;;;24.44;37.95;98866.47;5084886;28;20550;-71
2022/06/15 11:10:35;;;;;;;6.65;1.60;;;;;;;24.41;38.32;98872.34;5095435;28;20482;-69
2022/06/15 11:13:01;;;;;;;7.05;1.67;;;;;;;24.39;37.88;98864.47;5081437;28;20036;-66
2022/06/15 11:18:58;;;;;;;3.65;1.10;;;;;;;24.31;37.52;98859.34;5076669;28;20514;-70
2022/06/15 11:21:27;;;;;;;3.90;1.00;;;;;;;24.28;38.08;98860.66;5086880;28;20028;-70
2022/06/15 11:24:17;;;;;;;7.78;1.20;;;;;;;24.34;38.44;98862.41;5079393;28;20372;-68
2022/06/15 11:26:52;;;;;;;2.65;1.17;;;;;;;24.36;38.35;98865.72;5085886;28;20044;-68
2022/06/15 11:29:43;;;;;;;2.38;1.00;;;;;;;24.41;38.33;98872.34;5075977;28;20068;-69
2022/06/15 11:32:25;;;;;;;0.90;0.50;;;;;;;24.42;38.74;98868.59;5075140;28;20089;-67
2022/06/15 11:35:00;;;;;;;3.03;0.95;;;;;;;24.44;38.50;98875.41;5074812;28;20041;-68
2022/06/15 11:37:41;;;;;;;2.78;0.70;;;;;;;24.45;38.32;98878.94;5074894;28;20125;-69
2022/06/15 11:40:26;;;;;;;3.88;0.80;;;;;;;24.43;37.99;98886.47;5074727;28;20040;-68
2022/06/15 11:42:53;;;;;;;1.98;1.00;;;;;;;24.40;38.21;98878.78;5043339;28;20391;-67
2022/06/15 11:45:25;;;;;;;4.32;0.63;;;;;;;24.38;38.00;98885.25;5082521;28;20553;-69
2022/06/15 11:48:07;;;;;;;4.30;0.85;;;;;;;24.36;38.04;98881.94;5075305;28;20077;-69
2022/06/15 11:50:52;;;;;;;3.22;0.82;;;;;;;24.30;37.79;98882.88;5079257;28;20118;-68
2022/06/15 11:53:44;;;;;;;2.78;0.80;;;;;;;24.28;37.50;98884.97;5081125;28;20495;-70
2022/06/15 11:56:13;;;;;;;1.10;0.60;;;;;;;24.25;37.90;98893.53;5074936;28;20160;-70
2022/06/15 11:59:11;;;;;;;3.10;0.60;;;;;;;24.23;37.63;98893.78;5075133;28;20059;-69
2022/06/15 12:01:37;;;;;;;5.63;0.95;;;;;;;24.21;38.10;98895.03;5063882;28;20048;-68
2022/06/15 12:04:25;;;;;;;2.10;0.65;;;;;;;24.21;37.79;98897.72;5078709;28;20411;-68
2022/06/15 12:07:06;;;;;;;5.53;0.65;;;;;;;24.19;37.30;98884.47;5074606;28;20036;-71
2022/06/15 12:09:39;;;;;;;3.80;0.77;;;;;;;24.19;37.86;98872.84;5074491;28;20036;-69